createdAt,value
2023-06-23T00:01:22.342Z,8.60
2023-06-23T00:03:49.141Z,10.60
2023-06-23T00:06:15.960Z,10.63
2023-06-23T00:08:42.708Z,8.50
2023-06-23T00:11:10.931Z,11.63
2023-06-23T00:13:38.355Z,10.40
2023-06-23T00:16:05.653Z,9.27
2023-06-23T00:18:38.255Z,11.13
2023-06-23T00:21:06.275Z,8.07
2023-06-23T00:23:32.756Z,8.00
2023-06-23T00:25:59.355Z,8.43
2023-06-23T00:28:28.468Z,8.10
2023-06-23T00:30:55.564Z,8.73
2023-06-23T00:33:21.870Z,9.07
2023-06-23T00:35:48.228Z,9.47
2023-06-23T00:38:14.754Z,9.17
2023-06-23T00:40:41.548Z,11.07
2023-06-23T00:43:08.286Z,7.60
2023-06-23T00:45:34.908Z,8.83
2023-06-23T00:48:03.221Z,8.83
2023-06-23T00:50:30.534Z,8.07
2023-06-23T00:52:57.387Z,8.60
2023-06-23T00:55:27.340Z,8.73
2023-06-23T00:57:55.450Z,8.03
2023-06-23T01:00:22.497Z,10.00
2023-06-23T01:02:53.141Z,11.47
2023-06-23T01:05:31.613Z,10.63
2023-06-23T01:08:05.305Z,10.40
2023-06-23T01:10:40.905Z,11.40
2023-06-23T01:13:14.849Z,9.50
2023-06-23T01:15:44.755Z,9.77
2023-06-23T01:18:14.779Z,9.73
2023-06-23T01:20:42.794Z,9.50
2023-06-23T01:23:15.521Z,10.20
2023-06-23T01:25:51.099Z,9.53
2023-06-23T01:28:40.124Z,10.13
2023-06-23T01:31:08.649Z,9.30
2023-06-23T01:33:39.085Z,8.77
2023-06-23T01:36:07.886Z,9.67
2023-06-23T01:38:37.786Z,9.37
2023-06-23T01:41:07.933Z,9.93
2023-06-23T01:43:36.161Z,11.20
2023-06-23T01:46:05.359Z,9.23
2023-06-23T01:48:35.849Z,10.60
2023-06-23T01:51:04.140Z,9.93
2023-06-23T01:53:31.744Z,9.83
2023-06-23T01:55:59.027Z,13.50
2023-06-23T01:58:26.009Z,10.33
2023-06-23T02:00:53.580Z,8.47
2023-06-23T02:03:20.441Z,10.00
2023-06-23T02:05:48.476Z,10.47
2023-06-23T02:08:15.640Z,9.47
2023-06-23T02:10:42.201Z,9.63
2023-06-23T02:13:12.773Z,9.03
2023-06-23T02:15:40.468Z,8.97
2023-06-23T02:18:08.916Z,9.07
2023-06-23T02:20:36.457Z,9.37
2023-06-23T02:23:03.057Z,10.10
2023-06-23T02:25:29.763Z,10.40
2023-06-23T02:27:57.254Z,9.57
2023-06-23T02:30:23.934Z,9.93
2023-06-23T02:32:50.257Z,10.43
2023-06-23T02:35:16.962Z,10.67
2023-06-23T02:37:46.547Z,8.33
2023-06-23T02:40:17.683Z,8.07
2023-06-23T02:42:57.239Z,11.97
2023-06-23T02:45:25.795Z,8.40
2023-06-23T02:47:53.984Z,10.00
2023-06-23T02:50:23.243Z,9.23
2023-06-23T02:52:54.141Z,8.33
2023-06-23T02:55:21.504Z,8.47
2023-06-23T02:57:49.664Z,8.27
2023-06-23T03:00:21.052Z,7.97
2023-06-23T03:02:48.991Z,7.33
2023-06-23T03:05:16.076Z,8.40
2023-06-23T03:07:42.425Z,7.17
2023-06-23T03:10:09.097Z,11.20
2023-06-23T03:12:35.723Z,8.33
2023-06-23T03:15:02.355Z,7.53
2023-06-23T03:17:30.220Z,8.60
2023-06-23T03:19:58.453Z,9.67
2023-06-23T03:22:28.849Z,9.07
2023-06-23T03:24:57.519Z,8.10
2023-06-23T03:27:26.166Z,9.73
2023-06-23T03:29:59.120Z,8.40
2023-06-23T03:32:32.187Z,8.33
2023-06-23T03:35:11.416Z,9.60
2023-06-23T03:37:40.506Z,8.37
2023-06-23T03:40:10.460Z,8.23
2023-06-23T03:42:39.871Z,8.27
2023-06-23T03:45:07.807Z,8.27
2023-06-23T03:47:34.701Z,9.87
2023-06-23T03:50:03.816Z,9.13
2023-06-23T03:52:30.604Z,11.77
2023-06-23T03:54:57.213Z,9.90
2023-06-23T03:57:26.112Z,8.97
2023-06-23T03:59:53.166Z,10.50
2023-06-23T04:02:21.592Z,10.90
2023-06-23T04:04:49.157Z,9.50
2023-06-23T04:07:15.812Z,10.17
2023-06-23T04:09:43.510Z,9.70
2023-06-23T04:12:11.248Z,9.80
2023-06-23T04:14:37.959Z,12.70
2023-06-23T04:17:05.425Z,10.03
2023-06-23T04:19:31.890Z,10.57
2023-06-23T04:22:00.155Z,13.27
2023-06-23T04:24:26.895Z,11.17
2023-06-23T04:26:55.180Z,10.70
2023-06-23T04:29:23.716Z,9.30
2023-06-23T04:31:51.032Z,8.63
2023-06-23T04:34:17.394Z,10.57
2023-06-23T04:36:46.495Z,11.83
2023-06-23T04:39:17.016Z,10.03
2023-06-23T04:41:46.987Z,11.33
2023-06-23T04:44:13.819Z,11.30
2023-06-23T04:46:41.588Z,11.93
2023-06-23T04:49:09.517Z,16.30
2023-06-23T04:51:38.122Z,10.70
2023-06-23T04:54:08.148Z,11.50
2023-06-23T04:56:35.882Z,10.73
2023-06-23T04:59:04.915Z,10.40
2023-06-23T05:01:31.660Z,9.73
2023-06-23T05:03:58.978Z,9.57
2023-06-23T05:06:26.285Z,10.10
2023-06-23T05:08:54.477Z,15.00
2023-06-23T05:11:21.714Z,9.83
2023-06-23T05:13:48.904Z,9.60
2023-06-23T05:16:15.641Z,11.80
2023-06-23T05:18:43.043Z,10.60
2023-06-23T05:21:09.359Z,11.10
2023-06-23T05:26:11.788Z,10.43
2023-06-23T05:28:39.101Z,8.77
2023-06-23T05:31:06.322Z,10.33
2023-06-23T05:33:34.636Z,10.60
2023-06-23T05:36:02.381Z,10.50
2023-06-23T05:38:29.895Z,10.13
2023-06-23T05:40:56.394Z,9.27
2023-06-23T05:43:22.781Z,9.63
2023-06-23T05:45:49.669Z,9.60
2023-06-23T05:48:22.381Z,10.77
2023-06-23T05:50:49.188Z,11.00
2023-06-23T05:53:17.270Z,11.20
2023-06-23T05:55:44.762Z,10.70
2023-06-23T05:58:12.426Z,11.47
2023-06-23T06:00:42.537Z,10.50
2023-06-23T06:03:10.872Z,11.97
2023-06-23T06:05:39.430Z,13.23
2023-06-23T06:08:06.740Z,11.20
2023-06-23T06:10:33.599Z,12.30
2023-06-23T06:13:01.464Z,12.37
2023-06-23T06:15:28.008Z,10.60
2023-06-23T06:17:54.866Z,13.37
2023-06-23T06:20:22.238Z,13.23
2023-06-23T06:22:53.486Z,14.20
2023-06-23T06:25:23.032Z,14.00
2023-06-23T06:27:50.305Z,12.03
2023-06-23T06:30:18.376Z,13.07
2023-06-23T06:32:44.788Z,14.10
2023-06-23T06:35:12.102Z,13.63
2023-06-23T06:37:39.310Z,13.67
2023-06-23T06:40:07.404Z,15.10
2023-06-23T06:42:34.052Z,15.43
2023-06-23T06:45:00.642Z,14.70
2023-06-23T06:47:29.258Z,13.93
2023-06-23T06:49:56.362Z,14.93
2023-06-23T06:52:28.001Z,14.63
2023-06-23T06:55:00.010Z,16.97
2023-06-23T06:57:26.431Z,14.77
2023-06-23T06:59:52.710Z,14.23
2023-06-23T07:02:19.357Z,14.10
2023-06-23T07:04:45.947Z,13.13
2023-06-23T07:07:14.266Z,14.17
2023-06-23T07:09:40.558Z,13.17
2023-06-23T07:12:07.277Z,12.67
2023-06-23T07:14:33.565Z,15.87
2023-06-23T07:16:59.848Z,15.73
2023-06-23T07:19:26.134Z,14.37
2023-06-23T07:21:52.419Z,14.47
2023-06-23T07:24:18.721Z,16.23
2023-06-23T07:26:45.006Z,16.43
2023-06-23T07:29:12.221Z,16.03
2023-06-23T07:31:38.920Z,17.03
2023-06-23T07:34:05.566Z,15.63
2023-06-23T07:36:31.908Z,17.80
2023-06-23T07:38:58.492Z,16.60
2023-06-23T07:41:24.879Z,15.77
2023-06-23T07:43:51.169Z,16.87
2023-06-23T07:46:17.583Z,15.27
2023-06-23T07:48:44.661Z,15.03
2023-06-23T07:51:11.994Z,15.37
2023-06-23T07:53:38.320Z,14.50
2023-06-23T07:56:04.789Z,16.23
2023-06-23T07:58:31.088Z,14.60
2023-06-23T08:00:57.708Z,16.07
2023-06-23T08:03:24.307Z,12.73
2023-06-23T08:05:50.653Z,13.63
2023-06-23T08:08:17.039Z,12.53
2023-06-23T08:10:45.069Z,17.23
2023-06-23T08:13:11.369Z,15.13
2023-06-23T08:15:37.706Z,13.60
2023-06-23T08:18:04.086Z,11.83
2023-06-23T08:20:30.474Z,14.33
2023-06-23T08:22:56.790Z,12.07
2023-06-23T08:25:23.123Z,11.33
2023-06-23T08:27:49.447Z,12.00
2023-06-23T08:30:16.348Z,14.83
2023-06-23T08:32:42.681Z,11.23
2023-06-23T08:35:10.636Z,11.47
2023-06-23T08:37:39.112Z,14.33
2023-06-23T08:40:05.737Z,12.23
2023-06-23T08:42:32.860Z,12.07
2023-06-23T08:45:00.142Z,12.77
2023-06-23T08:47:28.333Z,11.87
2023-06-23T08:49:54.707Z,12.70
2023-06-23T08:52:21.861Z,11.13
2023-06-23T08:54:48.314Z,11.33
2023-06-23T08:57:14.641Z,14.03
2023-06-23T08:59:40.922Z,13.43
2023-06-23T09:02:07.219Z,12.80
2023-06-23T09:04:33.536Z,10.67
2023-06-23T09:07:00.175Z,12.70
2023-06-23T09:09:26.879Z,11.07
2023-06-23T09:11:53.326Z,12.50
2023-06-23T09:14:19.778Z,10.27
2023-06-23T09:16:46.768Z,13.80
2023-06-23T09:19:13.808Z,12.13
2023-06-23T09:21:41.631Z,12.30
2023-06-23T09:24:08.434Z,11.17
2023-06-23T09:26:48.891Z,10.83
2023-06-23T09:29:25.958Z,13.60
2023-06-23T09:31:53.284Z,13.27
2023-06-23T09:34:23.854Z,14.57
2023-06-23T09:36:50.621Z,13.43
2023-06-23T09:39:16.967Z,19.30
2023-06-23T09:41:57.088Z,13.53
2023-06-23T09:44:32.184Z,12.93
2023-06-23T09:47:04.967Z,15.23
2023-06-23T09:49:41.569Z,16.80
2023-06-23T09:52:08.424Z,16.23
2023-06-23T09:54:35.475Z,15.43
2023-06-23T09:57:02.312Z,17.33
2023-06-23T09:59:30.985Z,18.63
2023-06-23T10:01:57.401Z,18.63
2023-06-23T10:04:30.869Z,18.83
2023-06-23T10:06:58.129Z,17.97
2023-06-23T10:09:25.070Z,19.63
2023-06-23T10:11:51.750Z,20.80
2023-06-23T10:14:19.240Z,19.33
2023-06-23T10:16:45.845Z,20.90
2023-06-23T10:19:13.184Z,22.13
2023-06-23T10:21:40.634Z,20.10
2023-06-23T10:24:08.896Z,20.70
2023-06-23T10:26:36.571Z,18.93
2023-06-23T10:29:07.973Z,19.67
2023-06-23T10:31:35.892Z,19.20
2023-06-23T10:34:05.422Z,18.87
2023-06-23T10:36:32.459Z,18.40
2023-06-23T10:39:01.218Z,18.67
2023-06-23T10:41:27.708Z,18.13
2023-06-23T10:43:56.751Z,18.03
2023-06-23T10:46:26.534Z,17.00
2023-06-23T10:48:52.929Z,15.93
2023-06-23T10:51:19.441Z,16.10
2023-06-23T10:53:47.551Z,17.17
2023-06-23T10:56:30.384Z,16.90
2023-06-23T10:58:56.678Z,15.50
2023-06-23T11:01:23.077Z,16.00
2023-06-23T11:03:53.770Z,14.70
2023-06-23T11:06:27.732Z,14.10
2023-06-23T11:08:54.025Z,14.23
2023-06-23T11:11:30.578Z,13.07
2023-06-23T11:13:57.551Z,13.90
2023-06-23T11:16:35.662Z,13.40
2023-06-23T11:19:03.562Z,13.33
2023-06-23T11:21:38.927Z,12.50
2023-06-23T11:24:09.182Z,10.03
2023-06-23T11:26:35.895Z,10.63
2023-06-23T11:29:02.180Z,11.47
2023-06-23T11:31:30.127Z,9.27
2023-06-23T11:33:56.466Z,8.63
2023-06-23T11:36:24.565Z,10.47
2023-06-23T11:38:51.448Z,9.73
2023-06-23T11:41:43.880Z,10.07
2023-06-23T11:44:11.602Z,11.13
2023-06-23T11:46:37.919Z,10.07
2023-06-23T11:49:11.207Z,9.20
2023-06-23T11:51:37.750Z,11.07
2023-06-23T11:54:06.235Z,9.70
2023-06-23T11:56:33.636Z,11.33
2023-06-23T11:59:02.708Z,11.30
2023-06-23T12:01:29.039Z,11.63
2023-06-23T12:03:55.440Z,11.80
2023-06-23T12:06:24.112Z,11.30
2023-06-23T12:08:51.024Z,12.67
2023-06-23T12:11:19.017Z,11.43
2023-06-23T12:13:49.600Z,12.10
2023-06-23T12:16:15.997Z,11.40
2023-06-23T12:18:45.671Z,13.27
2023-06-23T12:21:12.028Z,11.67
2023-06-23T12:23:38.642Z,11.53
2023-06-23T12:26:07.863Z,10.67
2023-06-23T12:28:34.172Z,10.87
2023-06-23T12:31:00.616Z,10.13
2023-06-23T12:33:30.426Z,8.97
2023-06-23T12:36:00.476Z,10.63
2023-06-23T12:38:27.673Z,11.77
2023-06-23T12:40:54.530Z,10.87
2023-06-23T12:43:21.372Z,9.93
2023-06-23T12:45:48.313Z,9.37
2023-06-23T12:48:14.713Z,11.20
2023-06-23T12:50:42.672Z,9.30
2023-06-23T12:53:09.508Z,8.50
2023-06-23T12:55:36.354Z,7.93
2023-06-23T12:58:02.872Z,9.20
2023-06-23T13:00:29.171Z,8.40
2023-06-23T13:02:55.657Z,7.60
2023-06-23T13:05:22.106Z,6.93
2023-06-23T13:07:48.405Z,8.50
2023-06-23T13:10:14.700Z,8.33
2023-06-23T13:12:41.017Z,7.47
2023-06-23T13:15:07.463Z,10.27
2023-06-23T13:17:33.925Z,7.17
2023-06-23T13:20:00.726Z,9.17
2023-06-23T13:22:27.120Z,7.10
2023-06-23T13:24:57.299Z,8.33
2023-06-23T13:27:24.610Z,9.47
2023-06-23T13:29:51.036Z,8.63
2023-06-23T13:32:18.174Z,8.40
2023-06-23T13:34:44.507Z,9.90
2023-06-23T13:37:11.083Z,7.93
2023-06-23T13:39:38.357Z,8.03
2023-06-23T13:42:05.658Z,7.80
2023-06-23T13:44:31.968Z,8.53
2023-06-23T13:46:58.272Z,7.50
2023-06-23T13:49:26.557Z,8.60
2023-06-23T13:51:53.042Z,10.00
2023-06-23T13:54:19.778Z,7.57
2023-06-23T13:56:46.133Z,8.73
2023-06-23T13:59:12.495Z,8.00
2023-06-23T14:01:38.828Z,6.57
2023-06-23T14:04:05.192Z,7.13
2023-06-23T14:06:31.586Z,6.63
2023-06-23T14:08:58.770Z,4.83
2023-06-23T14:11:25.147Z,7.17
2023-06-23T14:13:51.462Z,5.93
2023-06-23T14:16:17.924Z,7.00
2023-06-23T14:18:44.735Z,5.97
2023-06-23T14:21:12.959Z,8.00
2023-06-23T14:23:39.360Z,6.47
2023-06-23T14:26:05.707Z,4.97
2023-06-23T14:28:31.966Z,6.87
2023-06-23T14:30:58.316Z,6.00
2023-06-23T14:33:24.650Z,5.43
2023-06-23T14:35:50.964Z,7.93
2023-06-23T14:38:17.251Z,7.37
2023-06-23T14:40:43.614Z,7.60
2023-06-23T14:43:10.815Z,7.40
2023-06-23T14:45:38.259Z,8.33
2023-06-23T14:48:05.193Z,6.70
2023-06-23T14:50:31.522Z,8.20
2023-06-23T14:52:57.869Z,5.93
2023-06-23T14:55:25.292Z,6.40
2023-06-23T14:57:51.630Z,8.53
2023-06-23T15:00:18.164Z,6.90
2023-06-23T15:02:44.487Z,10.97
2023-06-23T15:05:10.855Z,7.17
2023-06-23T15:07:37.199Z,7.67
2023-06-23T15:10:03.884Z,7.80
2023-06-23T15:12:30.273Z,10.17
2023-06-23T15:14:57.133Z,7.87
2023-06-23T15:17:23.423Z,7.90
2023-06-23T15:19:49.750Z,8.93
2023-06-23T15:22:16.053Z,8.87
2023-06-23T15:24:42.499Z,8.83
2023-06-23T15:27:08.791Z,7.97
2023-06-23T15:29:35.093Z,9.80
2023-06-23T15:32:01.487Z,10.33
2023-06-23T15:34:30.903Z,8.60
2023-06-23T15:36:57.382Z,7.50
2023-06-23T15:39:23.689Z,11.57
2023-06-23T15:41:51.019Z,9.30
2023-06-23T15:44:18.146Z,8.50
2023-06-23T15:46:44.417Z,9.43
2023-06-23T15:49:10.812Z,8.30
2023-06-23T15:51:40.774Z,8.37
2023-06-23T15:54:07.834Z,7.60
2023-06-23T15:56:35.217Z,6.93
2023-06-23T15:59:01.484Z,7.80
2023-06-23T16:01:27.820Z,8.30
2023-06-23T16:03:54.301Z,8.53
2023-06-23T16:06:20.822Z,7.27
2023-06-23T16:08:47.166Z,6.70
2023-06-23T16:11:13.509Z,7.30
2023-06-23T16:13:39.828Z,8.77
2023-06-23T16:16:06.393Z,10.23
2023-06-23T16:18:32.809Z,7.60
2023-06-23T16:20:59.688Z,7.73
2023-06-23T16:23:27.114Z,8.83
2023-06-23T16:25:53.640Z,9.33
2023-06-23T16:28:19.990Z,7.93
2023-06-23T16:30:48.462Z,8.30
2023-06-23T16:33:14.986Z,8.37
2023-06-23T16:35:41.647Z,7.60
2023-06-23T16:38:07.919Z,9.23
2023-06-23T16:40:34.201Z,7.87
2023-06-23T16:43:05.329Z,14.93
2023-06-23T16:45:32.359Z,8.40
2023-06-23T16:47:58.998Z,7.57
2023-06-23T16:50:26.157Z,10.50
2023-06-23T16:52:52.479Z,10.03
2023-06-23T16:55:18.847Z,10.93
2023-06-23T16:57:45.278Z,7.60
2023-06-23T17:00:12.505Z,8.30
2023-06-23T17:02:39.409Z,8.20
2023-06-23T17:05:06.543Z,8.87
2023-06-23T17:07:35.947Z,8.60
2023-06-23T17:10:02.254Z,9.57
2023-06-23T17:12:29.147Z,7.57
2023-06-23T17:14:55.496Z,10.10
2023-06-23T17:17:22.267Z,11.63
2023-06-23T17:19:48.804Z,13.17
2023-06-23T17:22:16.057Z,9.97
2023-06-23T17:24:44.738Z,11.47
2023-06-23T17:27:11.018Z,11.10
2023-06-23T17:29:37.540Z,10.50
2023-06-23T17:32:04.052Z,10.40
2023-06-23T17:34:30.432Z,10.57
2023-06-23T17:36:56.755Z,10.43
2023-06-23T17:39:23.102Z,10.30
2023-06-23T17:41:49.976Z,13.10
2023-06-23T17:44:16.315Z,11.10
2023-06-23T17:46:42.734Z,11.60
2023-06-23T17:49:09.699Z,11.60
2023-06-23T17:51:37.152Z,13.63
2023-06-23T17:54:04.118Z,13.23
2023-06-23T17:56:31.134Z,13.60
2023-06-23T17:58:57.398Z,12.90
2023-06-23T18:01:23.852Z,14.17
2023-06-23T18:03:50.523Z,17.00
2023-06-23T18:06:17.592Z,13.63
2023-06-23T18:08:43.967Z,15.00
2023-06-23T18:11:10.666Z,12.90
2023-06-23T18:13:36.948Z,13.67
2023-06-23T18:16:03.301Z,13.27
2023-06-23T18:18:29.658Z,14.93
2023-06-23T18:20:55.960Z,16.27
2023-06-23T18:23:22.286Z,15.07
2023-06-23T18:25:48.553Z,13.10
2023-06-23T18:28:14.857Z,16.10
2023-06-23T18:30:41.285Z,13.20
2023-06-23T18:33:07.959Z,12.80
2023-06-23T18:35:34.312Z,13.60
2023-06-23T18:38:00.887Z,11.47
2023-06-23T18:40:27.251Z,16.43
2023-06-23T18:42:53.540Z,12.27
2023-06-23T18:45:21.267Z,11.53
2023-06-23T18:47:47.607Z,11.97
2023-06-23T18:50:14.015Z,12.10
2023-06-23T18:52:41.218Z,8.60
2023-06-23T18:55:07.995Z,11.33
2023-06-23T18:57:34.484Z,14.27
2023-06-23T19:00:04.454Z,11.33
2023-06-23T19:02:31.238Z,12.73
2023-06-23T19:04:57.602Z,12.10
2023-06-23T19:07:24.010Z,11.73
2023-06-23T19:09:51.010Z,10.97
2023-06-23T19:12:17.326Z,9.97
2023-06-23T19:14:43.596Z,9.93
2023-06-23T19:17:10.131Z,11.17
2023-06-23T19:19:40.650Z,11.00
2023-06-23T19:22:07.422Z,13.63
2023-06-23T19:24:37.482Z,11.70
2023-06-23T19:27:04.136Z,9.90
2023-06-23T19:29:30.514Z,11.50
2023-06-23T19:31:57.036Z,11.43
2023-06-23T19:34:23.421Z,11.90
2023-06-23T19:36:49.741Z,12.03
2023-06-23T19:39:16.997Z,9.70
2023-06-23T19:41:43.361Z,11.70
2023-06-23T19:44:09.715Z,8.60
2023-06-23T19:46:36.028Z,10.60
2023-06-23T19:49:02.310Z,11.20
2023-06-23T19:51:29.340Z,11.67
2023-06-23T19:53:55.615Z,10.20
2023-06-23T19:56:22.002Z,13.97
2023-06-23T19:58:48.441Z,11.50
2023-06-23T20:01:18.494Z,9.97
2023-06-23T20:03:46.214Z,10.80
2023-06-23T20:06:12.748Z,13.17
2023-06-23T20:08:39.022Z,10.80
2023-06-23T20:11:05.467Z,11.57
2023-06-23T20:13:32.877Z,11.43
2023-06-23T20:15:59.191Z,14.20
2023-06-23T20:18:26.029Z,11.20
2023-06-23T20:20:52.418Z,10.20
2023-06-23T20:23:18.753Z,14.17
2023-06-23T20:25:45.052Z,13.17
2023-06-23T20:28:11.329Z,10.40
2023-06-23T20:30:37.885Z,9.23
2023-06-23T20:33:04.199Z,11.20
2023-06-23T20:35:30.542Z,12.10
2023-06-23T20:37:56.936Z,9.97
2023-06-23T20:40:23.210Z,9.20
2023-06-23T20:42:49.617Z,9.93
2023-06-23T20:45:17.134Z,10.73
2023-06-23T20:47:43.671Z,11.47
2023-06-23T20:50:10.242Z,10.30
2023-06-23T20:52:36.706Z,13.00
2023-06-23T20:55:03.025Z,10.60
2023-06-23T20:57:29.309Z,10.00
2023-06-23T20:59:55.600Z,9.70
2023-06-23T21:02:21.942Z,8.67
2023-06-23T21:04:48.340Z,9.43
2023-06-23T21:07:14.682Z,12.40
2023-06-23T21:09:40.986Z,11.20
2023-06-23T21:12:09.723Z,10.93
2023-06-23T21:14:37.152Z,10.50
2023-06-23T21:17:03.554Z,9.47
2023-06-23T21:19:31.821Z,10.57
2023-06-23T21:21:58.112Z,10.37
2023-06-23T21:24:24.384Z,10.10
2023-06-23T21:26:50.823Z,10.70
2023-06-23T21:29:17.262Z,11.23
2023-06-23T21:31:43.618Z,10.83
2023-06-23T21:34:10.102Z,11.00
2023-06-23T21:36:36.402Z,10.73
2023-06-23T21:39:02.688Z,10.60
2023-06-23T21:41:29.152Z,10.50
2023-06-23T21:43:55.477Z,11.30
2023-06-23T21:46:21.778Z,9.60
2023-06-23T21:48:55.281Z,11.80
2023-06-23T21:51:22.765Z,9.63
2023-06-23T21:53:49.067Z,13.30
2023-06-23T21:56:15.823Z,13.03
2023-06-23T21:58:43.017Z,13.17
2023-06-23T22:01:10.101Z,11.37
2023-06-23T22:03:39.766Z,11.03
2023-06-23T22:06:06.471Z,11.60
2023-06-23T22:08:32.803Z,12.57
2023-06-23T22:10:59.231Z,11.67
2023-06-23T22:13:30.356Z,10.33
2023-06-23T22:15:59.737Z,10.70
2023-06-23T22:20:55.493Z,10.23
2023-06-23T22:23:22.052Z,11.07
2023-06-23T22:25:48.318Z,9.07
2023-06-23T22:28:14.717Z,8.73
2023-06-23T22:30:41.670Z,10.00
2023-06-23T22:33:07.933Z,9.17
2023-06-23T22:35:34.255Z,10.13
2023-06-23T22:38:01.359Z,12.50
2023-06-23T22:40:27.678Z,10.30
2023-06-23T22:42:53.973Z,11.13
2023-06-23T22:45:20.252Z,8.60
2023-06-23T22:47:46.597Z,10.60
2023-06-23T22:50:12.897Z,12.13
2023-06-23T22:52:40.546Z,11.77
2023-06-23T22:55:10.082Z,13.43
2023-06-23T22:57:36.429Z,14.27
2023-06-23T23:00:04.122Z,8.57
2023-06-23T23:02:30.437Z,10.87
2023-06-23T23:04:56.795Z,10.00
2023-06-23T23:07:24.124Z,12.17
2023-06-23T23:09:50.414Z,11.33
2023-06-23T23:12:16.775Z,9.47
2023-06-23T23:14:43.049Z,14.37
2023-06-23T23:17:09.440Z,12.60
2023-06-23T23:19:35.712Z,11.50
2023-06-23T23:22:02.019Z,13.73
2023-06-23T23:24:28.338Z,10.97
2023-06-23T23:26:54.664Z,11.50
2023-06-23T23:29:25.953Z,11.53
2023-06-23T23:31:54.654Z,13.43
2023-06-23T23:34:30.219Z,13.67
2023-06-23T23:36:56.972Z,14.40
2023-06-23T23:39:23.803Z,13.17
2023-06-23T23:41:50.199Z,16.00
2023-06-23T23:44:16.492Z,14.10
2023-06-23T23:46:44.697Z,15.50
2023-06-23T23:49:11.980Z,12.17
2023-06-23T23:51:38.386Z,12.73
2023-06-23T23:54:05.397Z,13.17
2023-06-23T23:56:32.408Z,14.77
2023-06-23T23:58:59.271Z,14.73
